地図

経路データ

SID SEASON NUMBER BASIN SUBBASIN NAME ISO_TIME NATURE LAT LON WMO_WIND WMO_PRES WMO_AGENCY TRACK_TYPE DIST2LAND LANDFALL IFLAG USA_AGENCY USA_ATCF_ID USA_LAT USA_LON USA_RECORD USA_STATUS USA_WIND USA_PRES USA_SSHS USA_R34_NE USA_R34_SE USA_R34_SW USA_R34_NW USA_R50_NE USA_R50_SE USA_R50_SW USA_R50_NW USA_R64_NE USA_R64_SE USA_R64_SW USA_R64_NW USA_POCI USA_ROCI USA_RMW USA_EYE TOKYO_LAT TOKYO_LON TOKYO_GRADE TOKYO_WIND TOKYO_PRES TOKYO_R50_DIR TOKYO_R50_LONG TOKYO_R50_SHORT TOKYO_R30_DIR TOKYO_R30_LONG TOKYO_R30_SHORT TOKYO_LAND CMA_LAT CMA_LON CMA_CAT CMA_WIND CMA_PRES HKO_LAT HKO_LON HKO_CAT HKO_WIND HKO_PRES NEWDELHI_LAT NEWDELHI_LON NEWDELHI_GRADE NEWDELHI_WIND NEWDELHI_PRES NEWDELHI_CI NEWDELHI_DP NEWDELHI_POCI REUNION_LAT REUNION_LON REUNION_TYPE REUNION_WIND REUNION_PRES REUNION_TNUM REUNION_CI REUNION_RMW REUNION_R34_NE REUNION_R34_SE REUNION_R34_SW REUNION_R34_NW REUNION_R50_NE REUNION_R50_SE REUNION_R50_SW REUNION_R50_NW REUNION_R64_NE REUNION_R64_SE REUNION_R64_SW REUNION_R64_NW BOM_LAT BOM_LON BOM_TYPE BOM_WIND BOM_PRES BOM_TNUM BOM_CI BOM_RMW BOM_R34_NE BOM_R34_SE BOM_R34_SW BOM_R34_NW BOM_R50_NE BOM_R50_SE BOM_R50_SW BOM_R50_NW BOM_R64_NE BOM_R64_SE BOM_R64_SW BOM_R64_NW BOM_ROCI BOM_POCI BOM_EYE BOM_POS_METHOD BOM_PRES_METHOD NADI_LAT NADI_LON NADI_CAT NADI_WIND NADI_PRES WELLINGTON_LAT WELLINGTON_LON WELLINGTON_WIND WELLINGTON_PRES DS824_LAT DS824_LON DS824_STAGE DS824_WIND DS824_PRES TD9636_LAT TD9636_LON TD9636_STAGE TD9636_WIND TD9636_PRES TD9635_LAT TD9635_LON TD9635_WIND TD9635_PRES TD9635_ROCI NEUMANN_LAT NEUMANN_LON NEUMANN_CLASS NEUMANN_WIND NEUMANN_PRES MLC_LAT MLC_LON MLC_CLASS MLC_WIND MLC_PRES USA_GUST BOM_GUST BOM_GUST_PER REUNION_GUST REUNION_GUST_PER USA_SEAHGT USA_SEARAD_NE USA_SEARAD_SE USA_SEARAD_SW USA_SEARAD_NW STORM_SPEED STORM_DIR
1980323N04180 1980 99 EP CP DINAH 1980-11-18 06:00:00 TS 4.30000 180.100 main 2142 2142 O________OO___ jtwc_wp WP271980 4.30000 -179.900 20 -1 4.30000 180.100 TC 20 4.30000 -179.900 0 20 28 262
1980323N04180 1980 99 WP MM DINAH 1980-11-18 09:00:00 TS 4.10506 178.730 main 2184 2184 P________PP___ WP271980 4.11565 178.720 20 -1 4.11565 178.720 TC 20 4.08389 178.750 0 20 26 259
1980323N04180 1980 99 WP MM DINAH 1980-11-18 12:00:00 TS 3.80000 177.500 main 2214 2192 O________OO___ jtwc_wp WP271980 3.80000 177.500 20 -1 3.80000 177.500 TC 20 3.80000 177.500 0 20 24 251
1980323N04180 1980 99 WP MM DINAH 1980-11-18 15:00:00 TS 3.33156 176.502 main 2176 2079 P________PP___ WP271980 3.29223 176.540 20 -1 3.29223 176.540 TC 20 3.41022 176.426 0 20 21 243
1980323N04180 1980 99 WP MM DINAH 1980-11-18 18:00:00 TS 2.86114 175.634 main 2070 1980 O________OP___ jtwc_wp WP271980 2.80000 175.700 20 -1 2.80000 175.700 TC 20 2.98342 175.502 0 20 19 246
1980323N04180 1980 99 WP MM DINAH 1980-11-18 21:00:00 TS 2.53996 174.749 main 1964 1889 P________PP___ WP271980 2.50248 174.785 20 -1 2.50248 174.785 TC 20 2.61494 174.677 0 20 18 255
1980323N04180 1980 99 WP MM DINAH 1980-11-19 00:00:00 TS 2.40000 173.900 main 1889 1830 O________OO___ jtwc_wp WP271980 2.40000 173.900 20 -1 2.40000 173.900 TC 20 2.40000 173.900 1 20 17 267
1980323N04180 1980 99 WP MM DINAH 1980-11-19 03:00:00 TS 2.46168 173.076 main 1830 1782 P________PP___ WP271980 2.47494 173.078 20 -1 2.47494 173.078 TC 20 2.43516 173.073 1 20 16 280
1980323N04180 1980 99 WP MM DINAH 1980-11-19 06:00:00 TS 2.67743 172.294 main 1782 1743 O________OP___ jtwc_wp WP271980 2.70000 172.300 20 -1 2.70000 172.300 TC 20 2.63230 172.283 1 20 16 288
1980323N04180 1980 99 WP MM DINAH 1980-11-19 09:00:00 TS 2.95941 171.527 main 1744 1716 P________PP___ WP271980 2.96997 171.528 20 -1 2.96997 171.528 TC 20 2.93829 171.526 1 20 16 293
1980323N04180 1980 99 WP MM DINAH 1980-11-19 12:00:00 TS 3.30000 170.800 main 1717 1700 O________OO___ jtwc_wp WP271980 3.30000 170.800 20 -1 3.30000 170.800 TC 20 3.30000 170.800 1 20 15 295
1980323N04180 1980 99 WP MM DINAH 1980-11-19 15:00:00 TS 3.62024 170.136 main 1695 1686 P________PP___ WP271980 3.63490 170.142 22 -1 3.63490 170.142 TC 22 3.59091 170.124 1 21 15 297
1980323N04180 1980 99 WP MM DINAH 1980-11-19 18:00:00 TS 3.97649 169.490 main 1692 1679 O________OP___ jtwc_wp WP271980 4.00000 169.500 25 -1 4.00000 169.500 TC 25 3.92947 169.471 1 22 15 300
1980323N04180 1980 99 WP MM DINAH 1980-11-19 21:00:00 TS 4.36605 168.818 main 1687 1679 P________PP___ WP271980 4.38491 168.822 25 -1 4.38491 168.822 TC 25 4.32831 168.808 1 23 16 301
1980323N04180 1980 99 WP MM DINAH 1980-11-20 00:00:00 TS 4.80000 168.100 main 1686 1681 O________OO___ jtwc_wp WP271980 4.80000 168.100 25 -1 4.80000 168.100 TC 25 4.80000 168.100 1 25 17 301
1980323N04180 1980 99 WP MM DINAH 1980-11-20 03:00:00 TS 5.24821 167.336 main 1686 1686 P________PP___ WP271980 5.18992 167.330 27 -1 5.18992 167.330 TC 27 5.36479 167.348 1 26 20 302
1980323N04180 1980 99 WP MM DINAH 1980-11-20 06:00:00 TS 5.82759 166.433 main 1708 1708 O_OO_____OP___ jtwc_wp WP271980 5.70000 166.500 30 -1 6.00000 165.600 1 23 1002 6.00000 166.300 TD 25 1002 5.70000 166.500 TC 30 5.99658 166.541 1 27 23 307
1980323N04180 1980 99 WP MM DINAH 1980-11-20 09:00:00 TS 6.59935 165.514 main 1759 1759 P_PP_____PP___ WP271980 6.46981 165.637 30 -1 6.82773 164.833 1 23 1002 6.77765 165.403 TD 25 1002 6.46981 165.637 TC 30 6.65507 165.664 1 28 25 310
1980323N04180 1980 99 WP MM DINAH 1980-11-20 12:00:00 TS 7.38333 164.533 main 1792 1785 O_OO_____OO___ jtwc_wp WP271980 7.30000 164.700 30 -1 7.60000 164.000 1 23 1002 7.50000 164.400 TD 25 1002 7.30000 164.700 TC 30 7.30000 164.700 1 30 25 306
1980323N04180 1980 99 WP MM DINAH 1980-11-20 15:00:00 TS 8.06436 163.465 main 1794 1759 P_PP_____PP___ WP271980 8.00212 163.702 32 -1 8.26725 163.052 1 26 1001 8.13000 163.230 TD 25 1002 8.00212 163.702 TC 32 7.92031 163.637 1 32 25 300
1980323N04180 1980 99 WP MM DINAH 1980-11-20 18:00:00 TS 8.65952 162.322 1006 tokyo main 1762 1724 OOOO_____OP___ jtwc_wp WP271980 8.60000 162.600 35 0 9.00000 162.000 2 1006 0 0 0 8.80000 162.000 1 29 1000 8.70000 162.000 TD 25 1002 8.60000 162.600 TC 35 8.51246 162.491 1 35 26 295
1980323N04180 1980 99 WP MM DINAH 1980-11-20 21:00:00 TS 9.15622 161.135 main 1726 1686 PPPP_____PP___ WP271980 9.09492 161.372 37 0 9.24790 161.023 2 1004 0 0 9.17253 160.849 1 33 999 9.32461 160.835 TD 25 1002 9.09492 161.372 TC 37 9.04828 161.299 1 37 25 291
1980323N04180 1980 99 WP MM DINAH 1980-11-21 00:00:00 TS 9.55217 159.948 1002 tokyo main 1690 1657 OOOO_____OO___ jtwc_wp WP271980 9.50000 160.100 40 0 9.50000 160.000 2 1002 0 0 0 9.50000 159.700 2 38 998 9.80000 159.700 TD 25 1002 9.50000 160.100 TC 40 9.50000 160.100 2 40 24 288
1980323N04180 1980 99 WP MM DINAH 1980-11-21 03:00:00 TS 9.88425 158.812 main 1656 1625 PPPP_____PP___ WP271980 9.89464 158.878 42 0 9.75736 158.907 2 998 0 0 9.97178 158.700 2 38 996 9.95963 158.584 TD 27 997 9.89464 158.878 TC 42 9.82745 158.924 2 43 23 285
1980323N04180 1980 99 WP MM DINAH 1980-11-21 06:00:00 TS 10.1457 157.692 35 994 tokyo main 1620 1587 OOOO_____OP___ jtwc_wp WP271980 10.2000 157.700 45 0 10.0000 157.800 3 35 994 0 8 175 30 0 10.4000 157.700 2 38 995 10.0000 157.500 TD 30 993 10.2000 157.700 TC 45 10.0742 157.753 2 47 22 282
1980323N04180 1980 99 WP MM DINAH 1980-11-21 09:00:00 TS 10.3383 156.577 main 1587 1568 PPPP_____PP___ WP271980 10.3796 156.570 50 0 10.2071 156.742 3 37 989 0 8 175 40 10.6526 156.542 2 38 995 10.1272 156.435 TD 32 988 10.3796 156.570 TC 50 10.2838 156.605 2 51 22 279
1980323N04180 1980 99 WP MM DINAH 1980-11-21 12:00:00 TS 10.5000 155.500 40 985 tokyo main 1564 1542 OOOO_____OO___ jtwc_wp WP271980 10.5000 155.500 55 0 10.4000 155.700 3 40 985 0 8 175 50 0 10.8000 155.400 2 38 995 10.3000 155.400 TS 35 984 10.5000 155.500 TC 55 10.5000 155.500 2 55 21 279
1980323N04180 1980 99 WP MM DINAH 1980-11-21 15:00:00 TS 10.6536 154.478 main 1553 1539 PPPP_____PP___ WP271980 10.6045 154.484 60 0 10.5772 154.650 3 45 980 0 8 175 50 10.8918 154.427 2 43 992 10.5124 154.362 TS 42 979 10.6045 154.484 TC 60 10.7310 154.463 2 58 20 280
1980323N04180 1980 99 WP MM DINAH 1980-11-21 18:00:00 TS 10.8642 153.494 50 975 tokyo main 1550 1544 OOOO_____OP___ jtwc_wp WP271980 10.8000 153.500 65 1 10.8000 153.600 4 50 975 0 8 175 50 0 11.0000 153.500 3 48 990 10.8000 153.400 STS 50 975 10.8000 153.500 TC 65 10.9851 153.467 2 62 20 285
1980323N04180 1980 99 WP MM DINAH 1980-11-21 21:00:00 TS 11.1649 152.532 main 1567 1565 PPPP_____PP___ WP271980 11.1671 152.507 67 1 11.0672 152.549 4 60 972 0 8 162 55 11.1522 152.514 3 58 980 11.1390 152.629 STS 57 972 11.1671 152.507 TC 67 11.2967 152.487 2 66 21 292
1980323N04180 1980 99 WP MM DINAH 1980-11-22 00:00:00 TS 11.6167 151.550 70 970 tokyo main 1603 1600 OOOO_____OO___ jtwc_wp WP271980 11.7000 151.500 70 1 11.5000 151.500 5 70 970 8 50 20 8 150 60 0 11.5000 151.500 4 68 970 11.6000 151.800 T 65 970 11.7000 151.500 TC 70 11.7000 151.500 4 70 23 299
1980323N04180 1980 99 WP MM DINAH 1980-11-22 03:00:00 TS 12.2828 150.472 main 1649 1647 PPPP_____PP___ WP271980 12.3847 150.458 72 1 12.2272 150.443 5 70 970 8 50 20 8 150 60 12.2124 150.443 4 68 970 12.2356 150.631 T 67 970 12.3847 150.458 TC 72 12.2525 150.402 4 73 25 303
1980323N04180 1980 99 WP MM DINAH 1980-11-22 06:00:00 TS 12.9985 149.383 70 970 tokyo main 1706 1704 OOOO_____OP___ jtwc_wp WP271980 13.1000 149.400 75 1 13.0000 149.400 5 70 970 8 50 20 8 150 60 0 13.0000 149.400 4 68 970 12.9000 149.400 T 70 970 13.1000 149.400 TC 75 12.8912 149.298 4 77 25 302
1980323N04180 1980 99 WP MM DINAH 1980-11-22 09:00:00 TS 13.5706 148.324 main 1761 1761 PPPP_____PP___ WP271980 13.6876 148.297 80 1 13.5375 148.347 5 70 970 8 50 20 8 150 60 13.5447 148.404 4 68 970 13.4069 148.354 T 72 970 13.6876 148.297 TC 80 13.5592 148.245 4 81 22 299
1980323N04180 1980 99 WP MM DINAH 1980-11-22 12:00:00 TS 14.0833 147.367 70 970 tokyo main 1814 1814 OOOO_____OO___ jtwc_wp WP271980 14.2000 147.300 85 2 14.0000 147.400 5 70 970 8 50 20 8 150 60 0 14.0000 147.500 4 68 970 13.9000 147.400 T 75 970 14.2000 147.300 TC 85 14.2000 147.300 4 85 20 300
1980323N04180 1980 99 WP MM DINAH 1980-11-22 15:00:00 TS 14.5720 146.548 main 1870 1870 PPPP_____PP___ WP271980 14.6494 146.532 92 2 14.4920 146.639 5 70 960 8 50 20 8 150 80 14.4271 146.704 4 77 962 14.5001 146.418 T 77 960 14.6494 146.532 TC 92 14.7140 146.465 4 88 18 304
1980323N04180 1980 99 WP MM DINAH 1980-11-22 18:00:00 TS 15.0664 145.859 70 950 tokyo main 1928 1928 OOOO_____OP___ jtwc_wp WP271980 15.1000 145.900 100 3 15.0000 146.000 5 70 950 8 50 20 8 150 100 0 14.9000 146.000 5 87 955 15.1000 145.600 T 80 950 15.1000 145.900 TC 100 15.1983 145.751 4 92 17 309
1980323N04180 1980 99 WP MM DINAH 1980-11-22 21:00:00 TS 15.6013 145.219 main 1988 1988 PPPP_____PP___ WP271980 15.6275 145.233 100 3 15.5350 145.347 5 75 950 8 55 40 8 137 100 15.5425 145.283 5 92 948 15.5920 145.059 T 85 950 15.6275 145.233 TC 100 15.6834 145.162 4 96 16 315
1980323N04180 1980 99 WP MM DINAH 1980-11-23 00:00:00 TS 16.1667 144.717 80 950 tokyo main 2060 2054 OOOO_____OO___ jtwc_wp WP271980 16.2000 144.700 100 3 16.1000 144.800 5 80 950 9 60 60 8 125 100 0 16.2000 144.700 5 97 941 16.1000 144.700 ST 90 950 16.2000 144.700 TC 100 16.2000 144.700 4 100 14 324
1980323N04180 1980 99 WP MM DINAH 1980-11-23 03:00:00 TS 16.7423 144.350 main 2050 1980 PPPP_____PP___ WP271980 16.7847 144.389 100 3 16.6848 144.375 5 85 950 9 60 50 8 125 112 16.6847 144.317 5 92 945 16.7349 144.348 ST 90 950 16.7847 144.389 TC 100 16.7799 144.280 4 98 13 334
1980323N04180 1980 99 WP MM DINAH 1980-11-23 06:00:00 TS 17.3494 144.115 90 950 tokyo main 1980 1899 OOOO_____OP___ jtwc_wp WP271980 17.4000 144.200 100 3 17.3000 144.100 5 90 950 1 60 40 9 125 125 0 17.2000 144.100 5 87 950 17.4000 144.100 ST 90 950 17.4000 144.200 TC 100 17.3962 143.988 4 97 13 342
1980323N04180 1980 99 WP MM DINAH 1980-11-23 09:00:00 TS 17.9903 143.924 main 1899 1838 PPPP_____PP___ WP271980 18.0275 143.940 97 3 17.9274 143.940 5 90 952 1 55 45 9 125 125 17.9274 143.948 5 87 952 17.9924 143.947 ST 90 955 18.0275 143.940 TC 97 18.0395 143.828 4 96 14 349
1980323N04180 1980 99 WP MM DINAH 1980-11-23 12:00:00 TS 18.6667 143.850 90 955 tokyo main 1824 1767 OOOO_____OO___ jtwc_wp WP271980 18.7000 143.800 95 2 18.6000 143.900 5 90 955 9 50 50 9 125 125 0 18.7000 143.900 5 87 955 18.6000 143.900 ST 90 960 18.7000 143.800 TC 95 18.7000 143.800 4 95 14 358
1980323N04180 1980 99 WP MM DINAH 1980-11-23 15:00:00 TS 19.3780 143.865 main 1757 1701 PPPP_____PP___ WP271980 19.4574 143.875 95 2 19.3574 143.890 5 82 955 9 55 55 9 137 137 19.3649 143.883 5 82 960 19.2924 143.898 ST 90 957 19.4574 143.875 TC 95 19.3382 143.773 4 93 14 6
1980323N04180 1980 99 WP MM DINAH 1980-11-23 18:00:00 TS 20.0823 144.015 75 955 tokyo main 1691 1639 OOOO_____OP___ jtwc_wp WP271980 20.2000 144.100 95 2 20.1000 144.000 5 75 955 9 60 60 9 150 150 0 20.0000 144.000 4 77 965 20.0000 144.000 ST 90 955 20.2000 144.100 TC 95 19.9938 143.889 4 92 14 14
1980323N04180 1980 99 WP MM DINAH 1980-11-23 21:00:00 TS 20.7075 144.229 main 1639 1586 PPPP_____PP___ WP271980 20.7919 144.304 92 2 20.7070 144.196 5 80 955 9 60 60 9 150 150 20.6271 144.246 4 77 965 20.6494 144.139 ST 90 955 20.7919 144.304 TC 92 20.6777 144.185 4 91 14 25
1980323N04180 1980 99 WP MM DINAH 1980-11-24 00:00:00 TS 21.3500 144.650 85 955 tokyo main 1578 1529 OOOO_____OO___ jtwc_wp WP271980 21.4000 144.700 90 2 21.3000 144.600 5 85 955 9 60 60 9 150 150 0 21.3000 144.700 4 77 965 21.3000 144.500 ST 90 955 21.4000 144.700 TC 90 21.4000 144.700 4 90 17 36
1980323N04180 1980 99 WP MM DINAH 1980-11-24 03:00:00 TS 22.0876 145.299 main 1522 1478 PPPP_____PP___ WP271980 22.1695 145.366 87 2 21.9616 145.209 5 82 955 9 60 60 9 150 150 22.0766 145.316 4 77 965 21.9692 145.144 ST 87 952 22.1695 145.366 TC 87 22.1790 145.393 4 87 21 44
1980323N04180 1980 99 WP MM DINAH 1980-11-24 06:00:00 TS 22.8816 146.219 80 955 tokyo main 1471 1439 OOOO_____OP___ jtwc_wp WP271980 23.0000 146.300 85 2 22.7000 146.100 5 80 955 9 60 60 9 150 150 0 22.9000 146.200 4 77 965 22.7000 146.100 ST 85 950 23.0000 146.300 TC 85 22.9896 146.313 4 85 25 50
1980323N04180 1980 99 WP MM DINAH 1980-11-24 09:00:00 TS 23.7071 147.363 main 1444 1427 PPPP_____PP___ WP271980 23.8146 147.411 82 1 23.5425 147.252 5 77 957 9 55 55 9 150 150 23.7227 147.360 4 77 965 23.5429 147.317 ST 82 955 23.8146 147.411 TC 82 23.8053 147.426 4 82 28 54
1980323N04180 1980 99 WP MM DINAH 1980-11-24 12:00:00 TS 24.5167 148.683 75 960 tokyo main 1435 1429 OOOO_____OO___ jtwc_wp WP271980 24.6000 148.700 80 1 24.4000 148.600 5 75 960 9 50 50 9 150 150 0 24.5000 148.700 4 77 965 24.4000 148.700 T 80 960 24.6000 148.700 TC 80 24.6000 148.700 4 80 28 57
1980323N04180 1980 99 WP MM DINAH 1980-11-24 15:00:00 TS 25.2361 149.994 main 1445 1439 PPPP_____PP___ WP271980 25.3134 150.035 75 1 25.1699 149.920 5 72 962 9 50 50 9 150 150 25.1397 149.972 4 77 965 25.1547 149.986 T 75 965 25.3134 150.035 TC 75 25.3257 150.014 4 75 29 60
1980323N04180 1980 99 WP MM DINAH 1980-11-24 18:00:00 TS 25.9374 151.447 70 965 tokyo main 1475 1474 OOOO_____OP___ jtwc_wp WP271980 26.0000 151.500 70 1 25.9000 151.400 5 70 965 9 50 50 9 150 150 0 25.8000 151.400 4 77 965 25.9000 151.400 T 70 970 26.0000 151.500 TC 70 26.0242 151.481 4 70 31 63
1980323N04180 1980 99 WP MM DINAH 1980-11-24 21:00:00 TS 26.6719 153.091 main 1530 1530 PPPP_____PP___ WP271980 26.6983 153.085 65 1 26.5918 153.128 5 67 967 9 50 50 9 150 150 26.6327 153.074 4 72 967 26.6999 153.091 T 65 975 26.6983 153.085 TC 65 26.7105 153.082 4 65 34 64
1980323N04180 1980 99 WP MM DINAH 1980-11-25 00:00:00 TS 27.4190 154.895 65 970 tokyo main 1613 1613 OOOO_____OO___ jtwc_wp WP271980 27.4000 154.800 60 0 27.3000 155.000 5 65 970 9 50 50 9 150 150 0 27.5000 155.000 4 68 970 27.5000 154.900 STS 60 980 27.4000 154.800 TC 60 27.4000 154.800 2 60 36 65
1980323N04180 1980 99 WP MM DINAH 1980-11-25 03:00:00 TS 28.1822 156.772 main 1712 1712 PPPP_____PP___ WP271980 28.1052 156.617 55 0 28.1130 156.885 5 62 972 9 50 50 9 150 125 28.2596 157.056 4 63 975 28.2909 156.607 STS 57 982 28.1052 156.617 TC 55 28.1022 156.617 2 55 38 66
1980323N04180 1980 99 WP MM DINAH 1980-11-25 06:00:00 TS 28.9333 158.793 60 975 tokyo main 1838 1838 OOOO_____OO___ jtwc_wp WP271980 28.8000 158.500 50 0 28.9000 158.800 4 60 975 9 50 50 2 150 100 0 29.0000 159.400 3 58 980 29.0000 158.400 STS 55 985 28.8000 158.500 TC 50 28.8000 158.500 2 50 40 69
1980323N04180 1980 99 WP MM DINAH 1980-11-25 09:00:00 TS 29.6116 161.065 main 2001 2001 _PPP__________ WP271980 -1 29.5477 160.658 4 55 977 9 2 150 100 29.7522 162.157 3 53 985 29.5349 160.379 STS 52 985 TC 2 41 72
1980323N04180 1980 99 WP MM DINAH 1980-11-25 12:00:00 TS 30.1900 163.290 50 980 tokyo main 2080 2080 _OOO__________ -1 30.1000 162.600 4 50 980 0 2 150 100 0 30.5000 165.000 3 48 990 30.0000 162.500 STS 50 985 40 74
1980323N04180 1980 99 WP MM DINAH 1980-11-25 15:00:00 TS 30.7443 165.516 main 2148 2144 _PPP__________ -1 30.6139 164.881 4 985 0 2 31.2540 167.583 3 43 992 30.4954 164.719 STS 50 985 37 75
1980323N04180 1980 99 WP MM DINAH 1980-11-25 18:00:00 MX 31.1667 167.500 990 tokyo main 2212 2212 _OOO__________ -1 31.0000 167.000 6 990 0 0 0 32.0000 170.000 2 38 995 31.0000 167.000 STS 50 985 26 79
1980323N04180 1980 99 WP MM DINAH 1980-11-25 21:00:00 ET 31.2470 168.510 main 2270 2267 _P____________ -1 31.2470 168.510 6 993 0 0 2 STS 19 83
1980323N04180 1980 99 WP MM DINAH 1980-11-26 00:00:00 ET 31.4000 169.700 996 tokyo main 2324 2324 _O____________ -1 31.4000 169.700 6 996 0 0 0 21 83
1980323N04180 1980 99 WP MM DINAH 1980-11-26 03:00:00 ET 31.5137 170.903 main 2390 2390 _P____________ -1 31.5137 170.903 6 998 0 0 20 84
1980323N04180 1980 99 WP MM DINAH 1980-11-26 06:00:00 ET 31.6000 172.000 1000 tokyo main 2452 2452 _O____________ -1 31.6000 172.000 6 1000 0 0 0 18 84
1980323N04180 1980 99 WP MM DINAH 1980-11-26 09:00:00 ET 31.7062 173.023 main 2494 2494 _P____________ -1 31.7062 173.023 6 1001 0 0 17 83
1980323N04180 1980 99 WP MM DINAH 1980-11-26 12:00:00 ET 31.8000 174.000 1002 tokyo main 2531 2531 _O____________ -1 31.8000 174.000 6 1002 0 0 0 17 85
1980323N04180 1980 99 WP MM DINAH 1980-11-26 15:00:00 ET 31.8567 175.000 main 2571 2571 _P____________ -1 31.8567 175.000 6 1003 0 0 17 87
1980323N04180 1980 99 WP MM DINAH 1980-11-26 18:00:00 ET 31.9000 176.000 1004 tokyo main 2622 2554 _O____________ -1 31.9000 176.000 6 1004 0 0 0 17 87
1980323N04180 1980 99 WP MM DINAH 1980-11-26 21:00:00 ET 31.9567 177.000 main 2545 2466 _P____________ -1 31.9567 177.000 6 1004 0 0 17 87
1980323N04180 1980 99 WP MM DINAH 1980-11-27 00:00:00 ET 32.0000 178.000 1004 tokyo main 2457 2379 _O____________ -1 32.0000 178.000 6 1004 0 0 0 17 88
1980323N04180 1980 99 WP MM DINAH 1980-11-27 03:00:00 ET 32.0116 179.000 main 2370 2292 _P____________ -1 32.0116 179.000 6 1004 0 0 17 90
1980323N04180 1980 99 EP CP DINAH 1980-11-27 06:00:00 ET 32.0000 180.000 1004 tokyo main 2284 _O____________ -1 32.0000 180.000 6 1004 0 0 0 17 91

IBTrACS Databaseについて

本データベースは、米国NOAAが公開する1842年以降の世界の熱帯低気圧のベストトラックデータアーカイブInternational Best Track Archive for Climate Stewardship (IBTrACS)を、ウェブで閲覧しやすい形式に変換したものです。

最終更新日:2021-10-08